createdAt,value
2023-01-27T00:02:00.771Z,98122.16
2023-01-27T00:04:33.906Z,98125.25
2023-01-27T00:07:08.279Z,98127.47
2023-01-27T00:09:41.856Z,98125.97
2023-01-27T00:12:39.024Z,98117.25
2023-01-27T00:15:14.678Z,98115.19
2023-01-27T00:17:47.759Z,98118.44
2023-01-27T00:20:42.814Z,98123.03
2023-01-27T00:23:37.343Z,98117.13
2023-01-27T00:26:14.525Z,98122.56
2023-01-27T00:28:48.850Z,98122.72
2023-01-27T00:31:39.786Z,98116.81
2023-01-27T00:34:12.882Z,98114.88
2023-01-27T00:36:45.907Z,98113.06
2023-01-27T00:39:20.338Z,98117.81
2023-01-27T00:41:53.417Z,98123.00
2023-01-27T00:44:26.469Z,98117.81
2023-01-27T00:46:59.670Z,98117.50
2023-01-27T00:49:32.675Z,98119.88
2023-01-27T00:52:05.964Z,98123.41
2023-01-27T00:54:40.368Z,98134.09
2023-01-27T00:57:13.418Z,98126.97
2023-01-27T00:59:46.456Z,98124.06
2023-01-27T01:02:19.683Z,98125.50
2023-01-27T01:04:52.736Z,98128.47
2023-01-27T01:07:26.146Z,98125.22
2023-01-27T01:10:00.560Z,98128.03
2023-01-27T01:12:33.642Z,98130.25
2023-01-27T01:15:08.124Z,98135.25
2023-01-27T01:17:41.203Z,98134.53
2023-01-27T01:20:14.894Z,98134.22
2023-01-27T01:22:48.136Z,98137.06
2023-01-27T01:25:22.520Z,98133.19
2023-01-27T01:27:55.555Z,98129.38
2023-01-27T01:30:29.225Z,98134.72
2023-01-27T01:33:02.672Z,98132.78
2023-01-27T01:35:39.615Z,98132.91
2023-01-27T01:38:13.060Z,98134.84
2023-01-27T01:40:47.476Z,98130.84
2023-01-27T01:43:22.892Z,98133.97
2023-01-27T01:45:57.539Z,98126.13
2023-01-27T01:48:37.622Z,98126.97
2023-01-27T01:51:16.287Z,98121.38
2023-01-27T01:53:54.210Z,98126.69
2023-01-27T01:56:35.149Z,98111.63
2023-01-27T01:59:12.230Z,98116.22
2023-01-27T02:01:45.578Z,98108.97
2023-01-27T02:04:23.881Z,98116.06
2023-01-27T02:07:02.932Z,98115.19
2023-01-27T02:09:36.297Z,98111.34
2023-01-27T02:12:11.899Z,98103.31
2023-01-27T02:14:45.072Z,98100.38
2023-01-27T02:17:18.559Z,98106.56
2023-01-27T02:20:02.962Z,98095.03
2023-01-27T02:22:44.415Z,98101.56
2023-01-27T02:25:27.179Z,98104.34
2023-01-27T02:28:02.061Z,98100.06
2023-01-27T02:30:35.447Z,98100.38
2023-01-27T02:33:12.660Z,98100.97
2023-01-27T02:36:03.970Z,98102.88
2023-01-27T02:38:42.266Z,98100.66
2023-01-27T02:41:21.362Z,98094.00
2023-01-27T02:43:57.109Z,98096.69
2023-01-27T02:46:30.368Z,98099.78
2023-01-27T02:49:03.775Z,98099.03
2023-01-27T02:51:37.063Z,98087.34
2023-01-27T02:54:10.239Z,98094.44
2023-01-27T02:56:43.431Z,98098.56
2023-01-27T02:59:17.866Z,98082.31
2023-01-27T03:01:50.955Z,98095.66
2023-01-27T03:04:23.983Z,98089.13
2023-01-27T03:06:57.029Z,98104.03
2023-01-27T03:09:30.018Z,98108.03
2023-01-27T03:12:21.474Z,98104.50
2023-01-27T03:15:14.160Z,98103.56
2023-01-27T03:18:05.262Z,98100.06
2023-01-27T03:20:38.312Z,98093.84
2023-01-27T03:23:12.745Z,98102.28
2023-01-27T03:25:48.716Z,98105.97
2023-01-27T03:28:21.790Z,98107.41
2023-01-27T03:31:01.991Z,98100.63
2023-01-27T03:33:36.206Z,98105.22
2023-01-27T03:36:26.716Z,98107.16
2023-01-27T03:39:17.329Z,98111.13
2023-01-27T03:42:07.938Z,98104.31
2023-01-27T03:44:58.315Z,98100.63
2023-01-27T03:47:32.762Z,98106.25
2023-01-27T03:50:11.235Z,98104.34
2023-01-27T03:53:03.209Z,98104.53
2023-01-27T03:55:38.777Z,98107.91
2023-01-27T03:58:21.617Z,98109.38
2023-01-27T04:00:57.065Z,98099.22
2023-01-27T04:03:53.813Z,98105.13
2023-01-27T04:06:48.170Z,98105.41
2023-01-27T04:09:24.916Z,98088.22
2023-01-27T04:12:00.464Z,98102.13
2023-01-27T04:14:37.768Z,98096.81
2023-01-27T04:17:14.024Z,98088.06
2023-01-27T04:19:48.810Z,98095.03
2023-01-27T04:22:21.826Z,98092.66
2023-01-27T04:24:54.868Z,98109.53
2023-01-27T04:27:28.042Z,98098.72
2023-01-27T04:30:01.063Z,98107.16
2023-01-27T04:32:34.073Z,98103.16
2023-01-27T04:35:09.509Z,98119.44
2023-01-27T04:37:42.502Z,98112.47
2023-01-27T04:40:15.965Z,98112.34
2023-01-27T04:42:49.300Z,98110.53
2023-01-27T04:45:22.300Z,98120.00
2023-01-27T04:47:55.407Z,98129.94
2023-01-27T04:50:29.752Z,98125.78
2023-01-27T04:53:02.835Z,98130.25
2023-01-27T04:55:35.958Z,98123.41
2023-01-27T04:58:08.978Z,98127.41
2023-01-27T05:00:42.020Z,98134.97
2023-01-27T05:03:15.304Z,98129.94
2023-01-27T05:05:49.785Z,98131.09
2023-01-27T05:08:22.821Z,98145.06
2023-01-27T05:10:55.941Z,98136.06
2023-01-27T05:13:28.982Z,98134.16
2023-01-27T05:16:12.015Z,98132.78
2023-01-27T05:18:47.045Z,98134.25
2023-01-27T05:21:24.407Z,98135.72
2023-01-27T05:23:57.587Z,98141.31
2023-01-27T05:26:30.720Z,98145.75
2023-01-27T05:29:03.758Z,98143.50
2023-01-27T05:31:37.020Z,98142.84
2023-01-27T05:34:10.851Z,98144.66
2023-01-27T05:36:45.244Z,98149.94
2023-01-27T05:39:18.713Z,98140.16
2023-01-27T05:41:51.734Z,98148.94
2023-01-27T05:44:24.787Z,98163.38
2023-01-27T05:46:57.878Z,98145.19
2023-01-27T05:49:30.940Z,98146.13
2023-01-27T05:52:05.618Z,98146.25
2023-01-27T05:54:38.654Z,98148.53
2023-01-27T05:57:11.666Z,98148.09
2023-01-27T05:59:44.769Z,98144.88
2023-01-27T06:02:17.891Z,98145.81
2023-01-27T06:04:50.905Z,98148.75
2023-01-27T06:07:25.431Z,98147.13
2023-01-27T06:09:58.534Z,98148.31
2023-01-27T06:12:31.551Z,98151.84
2023-01-27T06:15:05.116Z,98160.00
2023-01-27T06:17:38.156Z,98163.22
2023-01-27T06:20:13.759Z,98157.88
2023-01-27T06:22:50.529Z,98165.91
2023-01-27T06:25:23.598Z,98169.44
2023-01-27T06:27:57.354Z,98161.91
2023-01-27T06:30:30.482Z,98166.94
2023-01-27T06:33:04.324Z,98181.28
2023-01-27T06:35:40.059Z,98184.84
2023-01-27T06:38:15.682Z,98184.81
2023-01-27T06:40:48.730Z,98188.94
2023-01-27T06:43:21.938Z,98192.28
2023-01-27T06:45:57.513Z,98205.78
2023-01-27T06:48:30.858Z,98201.00
2023-01-27T06:51:04.023Z,98194.91
2023-01-27T06:53:38.851Z,98201.06
2023-01-27T06:56:11.899Z,98202.63
2023-01-27T06:58:44.969Z,98208.09
2023-01-27T07:01:18.332Z,98207.78
2023-01-27T07:03:51.392Z,98222.59
2023-01-27T07:06:24.466Z,98219.91
2023-01-27T07:08:58.842Z,98220.84
2023-01-27T07:11:31.894Z,98221.13
2023-01-27T07:14:05.063Z,98219.66
2023-01-27T07:16:38.143Z,98225.91
2023-01-27T07:19:12.616Z,98237.09
2023-01-27T07:21:45.827Z,98226.94
2023-01-27T07:24:20.270Z,98230.75
2023-01-27T07:26:53.357Z,98230.94
2023-01-27T07:29:27.086Z,98235.72
2023-01-27T07:32:00.129Z,98240.81
2023-01-27T07:34:33.116Z,98242.84
2023-01-27T07:37:06.278Z,98247.13
2023-01-27T07:39:40.648Z,98249.41
2023-01-27T07:42:13.624Z,98255.56
2023-01-27T07:44:46.632Z,98259.69
2023-01-27T07:47:19.793Z,98259.69
2023-01-27T07:49:52.838Z,98255.16
2023-01-27T07:52:25.925Z,98241.56
2023-01-27T07:55:00.296Z,98257.28
2023-01-27T07:57:33.500Z,98253.75
2023-01-27T08:00:08.140Z,98257.34
2023-01-27T08:02:41.122Z,98258.31
2023-01-27T08:05:14.123Z,98261.16
2023-01-27T08:07:47.278Z,98269.66
2023-01-27T08:10:21.925Z,98265.19
2023-01-27T08:12:54.945Z,98279.69
2023-01-27T08:15:27.968Z,98268.91
2023-01-27T08:18:02.353Z,98263.81
2023-01-27T08:20:35.355Z,98267.50
2023-01-27T08:23:08.386Z,98257.94
2023-01-27T08:25:42.752Z,98254.25
2023-01-27T08:28:15.739Z,98266.44
2023-01-27T08:30:51.858Z,98280.63
2023-01-27T08:33:25.542Z,98276.09
2023-01-27T08:36:03.544Z,98280.38
2023-01-27T08:38:37.599Z,98278.81
2023-01-27T08:41:15.371Z,98272.41
2023-01-27T08:43:49.094Z,98285.53
2023-01-27T08:46:22.397Z,98273.75
2023-01-27T08:48:55.420Z,98268.00
2023-01-27T08:51:28.751Z,98268.94
2023-01-27T08:54:01.861Z,98255.94
2023-01-27T08:56:36.350Z,98269.72
2023-01-27T08:59:09.334Z,98273.38
2023-01-27T09:01:42.573Z,98277.25
2023-01-27T09:04:15.611Z,98276.16
2023-01-27T09:06:49.936Z,98273.66
2023-01-27T09:09:22.953Z,98286.25
2023-01-27T09:11:57.313Z,98275.22
2023-01-27T09:14:30.563Z,98282.06
2023-01-27T09:17:03.535Z,98287.22
2023-01-27T09:19:36.833Z,98289.31
2023-01-27T09:22:09.859Z,98281.31
2023-01-27T09:24:42.852Z,98282.97
2023-01-27T09:27:20.697Z,98280.75
2023-01-27T09:29:57.615Z,98286.25
2023-01-27T09:32:30.684Z,98285.38
2023-01-27T09:35:04.275Z,98282.28
2023-01-27T09:37:43.841Z,98287.38
2023-01-27T09:40:31.439Z,98291.06
2023-01-27T09:43:29.479Z,98284.75
2023-01-27T09:46:25.724Z,98283.63
2023-01-27T09:49:20.159Z,98278.88
2023-01-27T09:52:15.458Z,98282.28
2023-01-27T09:55:00.927Z,98278.72
2023-01-27T09:57:44.095Z,98278.84
2023-01-27T10:00:41.917Z,98279.06
2023-01-27T10:04:03.236Z,98278.91
2023-01-27T10:06:53.155Z,98289.31
2023-01-27T10:10:14.775Z,98276.91
2023-01-27T10:13:12.398Z,98277.38
2023-01-27T10:16:06.377Z,98285.38
2023-01-27T10:19:07.519Z,98300.66
2023-01-27T10:21:53.509Z,98297.00
2023-01-27T10:24:40.956Z,98301.66
2023-01-27T10:27:21.005Z,98305.06
2023-01-27T10:29:59.642Z,98308.16
2023-01-27T10:32:44.653Z,98304.22
2023-01-27T10:35:21.291Z,98310.69
2023-01-27T10:38:10.835Z,98306.88
2023-01-27T10:40:53.398Z,98312.81
2023-01-27T10:43:39.012Z,98299.47
2023-01-27T10:46:23.510Z,98314.44
2023-01-27T10:49:05.901Z,98310.28
2023-01-27T10:51:43.252Z,98307.22
2023-01-27T10:54:25.192Z,98307.47
2023-01-27T10:57:01.842Z,98297.72
2023-01-27T10:59:46.405Z,98300.94
2023-01-27T11:02:31.269Z,98307.66
2023-01-27T11:05:10.890Z,98305.78
2023-01-27T11:07:50.998Z,98296.97
2023-01-27T11:10:30.670Z,98292.97
2023-01-27T11:13:06.334Z,98280.25
2023-01-27T11:15:39.630Z,98280.59
2023-01-27T11:18:18.904Z,98284.44
2023-01-27T11:20:59.337Z,98288.31
2023-01-27T11:23:35.559Z,98287.72
2023-01-27T11:26:23.730Z,98285.91
2023-01-27T11:29:17.945Z,98295.25
2023-01-27T11:32:00.548Z,98288.38
2023-01-27T11:34:42.554Z,98289.34
2023-01-27T11:37:23.609Z,98281.13
2023-01-27T11:39:56.644Z,98279.97
2023-01-27T11:42:33.286Z,98280.75
2023-01-27T11:45:07.545Z,98282.47
2023-01-27T11:47:42.137Z,98269.00
2023-01-27T11:50:18.852Z,98271.66
2023-01-27T11:53:07.138Z,98270.47
2023-01-27T11:55:43.911Z,98261.78
2023-01-27T11:58:24.909Z,98268.72
2023-01-27T12:01:03.055Z,98261.00
2023-01-27T12:03:51.113Z,98264.28
2023-01-27T12:06:36.528Z,98263.69
2023-01-27T12:09:33.249Z,98267.41
2023-01-27T12:12:25.893Z,98254.97
2023-01-27T12:15:03.124Z,98258.97
2023-01-27T12:17:41.427Z,98264.31
2023-01-27T12:20:37.035Z,98267.97
2023-01-27T12:23:21.521Z,98268.06
2023-01-27T12:25:59.071Z,98276.25
2023-01-27T12:28:35.993Z,98265.72
2023-01-27T12:31:12.429Z,98260.34
2023-01-27T12:33:50.483Z,98249.13
2023-01-27T12:36:24.854Z,98245.41
2023-01-27T12:39:01.527Z,98241.41
2023-01-27T12:41:38.544Z,98239.75
2023-01-27T12:44:18.594Z,98233.44
2023-01-27T12:47:01.847Z,98224.66
2023-01-27T12:49:40.375Z,98226.03
2023-01-27T12:52:21.141Z,98229.31
2023-01-27T12:54:56.920Z,98228.41
2023-01-27T12:57:34.109Z,98214.59
2023-01-27T13:00:16.117Z,98210.94
2023-01-27T13:02:49.494Z,98209.31
2023-01-27T13:05:22.723Z,98211.81
2023-01-27T13:07:55.782Z,98227.84
2023-01-27T13:10:29.007Z,98221.31
2023-01-27T13:13:05.118Z,98221.03
2023-01-27T13:15:38.158Z,98229.59
2023-01-27T13:18:21.725Z,98233.47
2023-01-27T13:21:00.592Z,98230.34
2023-01-27T13:23:38.767Z,98242.63
2023-01-27T13:26:18.079Z,98239.78
2023-01-27T13:28:58.079Z,98238.50
2023-01-27T13:31:47.203Z,98248.47
2023-01-27T13:34:30.228Z,98252.34
2023-01-27T13:37:13.291Z,98254.44
2023-01-27T13:39:58.025Z,98263.03
2023-01-27T13:42:40.975Z,98274.03
2023-01-27T13:45:20.248Z,98268.06
2023-01-27T13:47:59.709Z,98273.28
2023-01-27T13:50:39.144Z,98280.28
2023-01-27T13:53:14.803Z,98287.88
2023-01-27T13:56:02.356Z,98282.13
2023-01-27T13:58:49.020Z,98278.63
2023-01-27T14:01:39.716Z,98283.03
2023-01-27T14:04:43.689Z,98284.06
2023-01-27T14:07:29.190Z,98280.47
2023-01-27T14:10:17.684Z,98289.53
2023-01-27T14:13:08.151Z,98290.03
2023-01-27T14:15:49.736Z,98297.66
2023-01-27T14:18:29.808Z,98292.47
2023-01-27T14:21:15.504Z,98289.78
2023-01-27T14:24:01.325Z,98288.13
2023-01-27T14:26:49.685Z,98290.25
2023-01-27T14:29:34.745Z,98298.09
2023-01-27T14:32:22.708Z,98295.34
2023-01-27T14:35:19.624Z,98305.97
2023-01-27T14:38:03.556Z,98308.22
2023-01-27T14:40:47.041Z,98311.50
2023-01-27T14:43:34.554Z,98312.38
2023-01-27T14:46:20.745Z,98310.91
2023-01-27T14:49:09.257Z,98307.69
2023-01-27T14:51:50.623Z,98310.63
2023-01-27T14:54:56.449Z,98310.34
2023-01-27T14:57:39.735Z,98307.63
2023-01-27T15:00:32.451Z,98305.88
2023-01-27T15:03:34.307Z,98296.97
2023-01-27T15:06:16.633Z,98292.28
2023-01-27T15:08:58.795Z,98299.00
2023-01-27T15:11:57.533Z,98291.75
2023-01-27T15:14:54.303Z,98287.78
2023-01-27T15:17:43.232Z,98284.81
2023-01-27T15:20:35.897Z,98287.31
2023-01-27T15:23:41.351Z,98298.56
2023-01-27T15:26:20.204Z,98304.25
2023-01-27T15:28:53.655Z,98312.44
2023-01-27T15:31:28.779Z,98297.91
2023-01-27T15:34:22.243Z,98305.91
2023-01-27T15:37:05.977Z,98305.19
2023-01-27T15:40:04.120Z,98311.28
2023-01-27T15:42:57.947Z,98315.41
2023-01-27T15:45:32.827Z,98308.31
2023-01-27T15:48:12.843Z,98314.34
2023-01-27T15:50:49.780Z,98323.97
2023-01-27T15:53:31.659Z,98325.50
2023-01-27T15:56:06.572Z,98329.78
2023-01-27T15:58:43.632Z,98337.06
2023-01-27T16:01:27.491Z,98340.13
2023-01-27T16:04:14.994Z,98346.22
2023-01-27T16:06:52.046Z,98338.09
2023-01-27T16:09:35.845Z,98347.63
2023-01-27T16:12:33.220Z,98347.34
2023-01-27T16:15:36.927Z,98350.41
2023-01-27T16:18:42.742Z,98356.19
2023-01-27T16:21:38.019Z,98359.56
2023-01-27T16:24:22.649Z,98361.16
2023-01-27T16:27:05.441Z,98373.69
2023-01-27T16:29:48.847Z,98373.16
2023-01-27T16:32:36.724Z,98374.38
2023-01-27T16:35:19.499Z,98371.16
2023-01-27T16:38:04.432Z,98368.16
2023-01-27T16:40:40.009Z,98364.97
2023-01-27T16:43:18.978Z,98367.03
2023-01-27T16:45:54.082Z,98368.84
2023-01-27T16:48:38.220Z,98380.25
2023-01-27T16:51:18.967Z,98376.81
2023-01-27T16:53:54.644Z,98379.81
2023-01-27T16:56:30.124Z,98382.31
2023-01-27T16:59:05.924Z,98382.06
2023-01-27T17:01:43.961Z,98378.03
2023-01-27T17:04:23.495Z,98379.03
2023-01-27T17:07:04.448Z,98377.13
2023-01-27T17:09:43.843Z,98374.19
2023-01-27T17:12:32.889Z,98372.56
2023-01-27T17:15:20.688Z,98383.22
2023-01-27T17:17:54.599Z,98378.56
2023-01-27T17:20:33.437Z,98381.44
2023-01-27T17:23:07.057Z,98379.22
2023-01-27T17:25:41.675Z,98385.28
2023-01-27T17:28:20.535Z,98376.25
2023-01-27T17:31:03.650Z,98386.63
2023-01-27T17:33:38.712Z,98388.09
2023-01-27T17:36:14.438Z,98389.91
2023-01-27T17:38:49.672Z,98396.41
2023-01-27T17:41:35.616Z,98397.47
2023-01-27T17:44:15.195Z,98394.94
2023-01-27T17:46:48.269Z,98393.31
2023-01-27T17:49:21.550Z,98400.28
2023-01-27T17:51:58.022Z,98403.84
2023-01-27T17:54:34.211Z,98402.94
2023-01-27T17:57:12.821Z,98402.22
2023-01-27T17:59:59.243Z,98397.31
2023-01-27T18:02:36.564Z,98405.94
2023-01-27T18:05:18.292Z,98401.47
2023-01-27T18:07:53.179Z,98402.38
2023-01-27T18:10:29.334Z,98404.16
2023-01-27T18:13:20.794Z,98406.38
2023-01-27T18:16:01.525Z,98407.41
2023-01-27T18:18:36.940Z,98405.63
2023-01-27T18:21:18.495Z,98404.56
2023-01-27T18:23:55.690Z,98395.56
2023-01-27T18:26:31.772Z,98392.28
2023-01-27T18:29:08.293Z,98405.94
2023-01-27T18:31:47.331Z,98407.41
2023-01-27T18:34:30.398Z,98408.28
2023-01-27T18:37:06.133Z,98408.16
2023-01-27T18:39:42.407Z,98403.13
2023-01-27T18:42:18.838Z,98405.63
2023-01-27T18:44:52.667Z,98415.72
2023-01-27T18:47:33.230Z,98413.94
2023-01-27T18:50:16.906Z,98419.28
2023-01-27T18:52:51.679Z,98421.63
2023-01-27T18:55:28.333Z,98419.69
2023-01-27T18:58:01.849Z,98427.41
2023-01-27T19:00:39.133Z,98427.06
2023-01-27T19:03:17.923Z,98426.63
2023-01-27T19:05:51.870Z,98420.13
2023-01-27T19:08:25.993Z,98426.34
2023-01-27T19:11:00.294Z,98422.78
2023-01-27T19:13:33.334Z,98421.91
2023-01-27T19:16:13.718Z,98412.72
2023-01-27T19:18:46.916Z,98418.63
2023-01-27T19:21:20.137Z,98418.06
2023-01-27T19:23:53.164Z,98417.16
2023-01-27T19:26:28.274Z,98409.47
2023-01-27T19:29:01.559Z,98409.31
2023-01-27T19:31:34.796Z,98409.00
2023-01-27T19:34:11.706Z,98410.78
2023-01-27T19:36:46.162Z,98419.38
2023-01-27T19:39:20.561Z,98420.84
2023-01-27T19:41:54.896Z,98422.78
2023-01-27T19:44:27.966Z,98421.00
2023-01-27T19:47:00.960Z,98435.56
2023-01-27T19:49:34.045Z,98431.41
2023-01-27T19:52:06.985Z,98445.94
2023-01-27T19:54:39.962Z,98450.50
2023-01-27T19:57:17.401Z,98454.91
2023-01-27T19:59:50.380Z,98458.31
2023-01-27T20:02:23.416Z,98458.31
2023-01-27T20:04:56.498Z,98459.81
2023-01-27T20:07:29.478Z,98456.53
2023-01-27T20:10:02.484Z,98468.06
2023-01-27T20:12:37.958Z,98461.56
2023-01-27T20:15:18.210Z,98464.22
2023-01-27T20:17:51.799Z,98462.47
2023-01-27T20:20:27.208Z,98457.72
2023-01-27T20:23:00.233Z,98461.31
2023-01-27T20:25:34.102Z,98455.06
2023-01-27T20:28:08.749Z,98450.75
2023-01-27T20:30:42.772Z,98463.66
2023-01-27T20:33:15.840Z,98455.69
2023-01-27T20:35:48.831Z,98461.63
2023-01-27T20:38:21.866Z,98460.44
2023-01-27T20:40:55.273Z,98451.38
2023-01-27T20:43:35.130Z,98449.28
2023-01-27T20:46:10.878Z,98458.47
2023-01-27T20:48:44.044Z,98463.34
2023-01-27T20:51:17.645Z,98471.34
2023-01-27T20:53:50.610Z,98460.66
2023-01-27T20:56:25.388Z,98471.03
2023-01-27T20:59:01.563Z,98466.72
2023-01-27T21:01:35.114Z,98468.88
2023-01-27T21:04:08.388Z,98474.47
2023-01-27T21:06:41.377Z,98473.22
2023-01-27T21:09:14.392Z,98481.56
2023-01-27T21:11:48.264Z,98474.06
2023-01-27T21:14:22.568Z,98479.81
2023-01-27T21:16:55.618Z,98475.13
2023-01-27T21:19:28.617Z,98474.53
2023-01-27T21:22:01.632Z,98485.81
2023-01-27T21:24:36.260Z,98479.81
2023-01-27T21:27:09.479Z,98483.09
2023-01-27T21:29:44.069Z,98481.19
2023-01-27T21:32:17.758Z,98477.97
2023-01-27T21:34:50.735Z,98472.94
2023-01-27T21:37:23.744Z,98472.69
2023-01-27T21:39:56.732Z,98471.88
2023-01-27T21:42:47.229Z,98472.94
2023-01-27T21:45:21.983Z,98460.91
2023-01-27T21:47:55.132Z,98462.88
2023-01-27T21:50:28.101Z,98471.44
2023-01-27T21:53:01.140Z,98475.22
2023-01-27T21:55:35.415Z,98472.34
2023-01-27T21:58:08.462Z,98479.25
2023-01-27T22:00:42.860Z,98471.34
2023-01-27T22:03:15.921Z,98475.91
2023-01-27T22:05:48.940Z,98471.00
2023-01-27T22:08:21.902Z,98471.06
2023-01-27T22:10:54.894Z,98472.38
2023-01-27T22:13:27.953Z,98475.53
2023-01-27T22:16:02.854Z,98468.38
2023-01-27T22:18:36.752Z,98473.94
2023-01-27T22:21:10.457Z,98468.06
2023-01-27T22:23:44.916Z,98471.72
2023-01-27T22:26:19.838Z,98473.22
2023-01-27T22:28:53.626Z,98472.75
2023-01-27T22:31:27.969Z,98468.13
2023-01-27T22:34:00.952Z,98471.53
2023-01-27T22:36:34.000Z,98474.38
2023-01-27T22:39:07.049Z,98467.31
2023-01-27T22:41:40.054Z,98467.00
2023-01-27T22:44:14.395Z,98477.13
2023-01-27T22:46:50.686Z,98478.69
2023-01-27T22:49:23.663Z,98480.22
2023-01-27T22:51:56.676Z,98474.69
2023-01-27T22:54:29.641Z,98481.56
2023-01-27T22:57:02.702Z,98481.56
2023-01-27T22:59:35.817Z,98474.38
2023-01-27T23:02:10.500Z,98474.47
2023-01-27T23:04:43.480Z,98479.19
2023-01-27T23:07:16.515Z,98474.66
2023-01-27T23:09:49.852Z,98476.41
2023-01-27T23:12:22.858Z,98481.63
2023-01-27T23:14:55.851Z,98480.25
2023-01-27T23:17:30.179Z,98476.28
2023-01-27T23:20:03.398Z,98474.38
2023-01-27T23:22:36.608Z,98471.13
2023-01-27T23:25:11.619Z,98470.41
2023-01-27T23:27:44.821Z,98469.19
2023-01-27T23:30:17.975Z,98468.88
2023-01-27T23:32:52.419Z,98462.00
2023-01-27T23:35:25.456Z,98468.41
2023-01-27T23:37:58.428Z,98465.31
2023-01-27T23:40:32.884Z,98462.41
2023-01-27T23:43:06.835Z,98473.84
2023-01-27T23:45:39.846Z,98469.22
2023-01-27T23:48:14.244Z,98481.38
2023-01-27T23:50:47.252Z,98470.09
2023-01-27T23:53:21.401Z,98472.66
2023-01-27T23:55:58.620Z,98476.06
2023-01-27T23:58:31.693Z,98468.50
